Texas City — WDD4983 — position and weather

sailwx.info

Track history (hours):
 
Tides and Currents Weather Stations Pressure Air Temp Water Temp Dewpoint Dewpoint Depression Visibility Wind Speed Wind Dir Waves Ship Positions

Texas City

Owner: Marathon Petroleum Company LP, Findlay, OH. More information available from US FCC via Universal Licensing System and Coast Guard Vessel Documentation Center.

Last reported at 2016-Sep-19 12:28 UTC. Time now 2016-Sep-30 20:18 UTC.
Position N 29°46' W 091°44'.
Warning: this ship's position is 11 days out of date.

Length 28 m; draft 3 m.

Type: Tug. MMSI: 367135470.

Date/timePositionNaut miles runAvg speedWind from/ knotsBaromVisibWave heightAir tempDewpointWater temp
2016-Sep-19 12:28N 29°46' W 091°44'4 4.5
2016-Sep-19 11:33N 29°47' W 091°49'9 4.4
2016-Sep-19 09:33N 29°50' W 091°58'11 5.6
2016-Sep-19 07:33N 29°46' W 092°10'4 3.7
2016-Sep-19 06:33N 29°48' W 092°14'55 5.0
2016-Sep-18 19:33N 30°02' W 093°16'13 3.2
2016-Sep-18 15:33N 30°04' W 093°30'79 4.6
2016-Sep-17 22:31N 29°30' W 094°53'6 6.6
2016-Sep-17 21:33N 29°36' W 094°57'7 6.9
2016-Sep-17 20:33N 29°42' W 095°00'6 0.1
2016-Sep-16 02:15N 29°47' W 095°04'7 4.1
2016-Sep-16 00:33N 29°42' W 094°59'  
2016-Sep-12 10:05N 29°29' W 094°52'15 5.4
2016-Sep-12 07:14N 29°42' W 095°01'8 0.5
2016-Sep-11 14:31N 29°44' W 095°10'5 4.7
2016-Sep-11 13:29N 29°46' W 095°04'5 5.6
2016-Sep-11 12:32N 29°42' W 094°60'6 6.2
2016-Sep-11 11:33N 29°36' W 094°57'7 6.8
2016-Sep-11 10:33N 29°31' W 094°53'73 1.8
2016-Sep-09 18:32N 30°04' W 093°38'5 4.9
2016-Sep-09 17:33N 30°04' W 093°32'5 4.9
2016-Sep-09 16:33N 30°04' W 093°27'5 4.5
2016-Sep-09 15:33N 30°04' W 093°21'4 3.7
2016-Sep-09 14:33N 30°05' W 093°17'2 2.1
2016-Sep-09 13:33N 30°04' W 093°16'4 3.7
2016-Sep-09 12:33N 30°00' W 093°14'  
Track history (hours):
 
Tides and Currents Weather Stations Pressure Air Temp Water Temp Dewpoint Dewpoint Depression Visibility Wind Speed Wind Dir Waves Ship Positions

Texas City

Owner: Marathon Petroleum Company LP, Findlay, OH. More information available from US FCC via Universal Licensing System and Coast Guard Vessel Documentation Center.

Last reported at 2016-Sep-19 12:28 UTC. Time now 2016-Sep-30 20:18 UTC.
Position N 29°46' W 091°44'.
Warning: this ship's position is 11 days out of date.

Length 28 m; draft 3 m.

Type: Tug. MMSI: 367135470.

Date/timePositionNaut miles runAvg speedWind from/ knotsBaromVisibWave heightAir tempDewpointWater temp
2016-Sep-19 12:28N 29°46' W 091°44'4 4.5
2016-Sep-19 11:33N 29°47' W 091°49'9 4.4
2016-Sep-19 09:33N 29°50' W 091°58'11 5.6
2016-Sep-19 07:33N 29°46' W 092°10'4 3.7
2016-Sep-19 06:33N 29°48' W 092°14'55 5.0
2016-Sep-18 19:33N 30°02' W 093°16'13 3.2
2016-Sep-18 15:33N 30°04' W 093°30'79 4.6
2016-Sep-17 22:31N 29°30' W 094°53'6 6.6
2016-Sep-17 21:33N 29°36' W 094°57'7 6.9
2016-Sep-17 20:33N 29°42' W 095°00'6 0.1
2016-Sep-16 02:15N 29°47' W 095°04'7 4.1
2016-Sep-16 00:33N 29°42' W 094°59'  
2016-Sep-12 10:05N 29°29' W 094°52'15 5.4
2016-Sep-12 07:14N 29°42' W 095°01'8 0.5
2016-Sep-11 14:31N 29°44' W 095°10'5 4.7
2016-Sep-11 13:29N 29°46' W 095°04'5 5.6
2016-Sep-11 12:32N 29°42' W 094°60'6 6.2
2016-Sep-11 11:33N 29°36' W 094°57'7 6.8
2016-Sep-11 10:33N 29°31' W 094°53'73 1.8
2016-Sep-09 18:32N 30°04' W 093°38'5 4.9
2016-Sep-09 17:33N 30°04' W 093°32'5 4.9
2016-Sep-09 16:33N 30°04' W 093°27'5 4.5
2016-Sep-09 15:33N 30°04' W 093°21'4 3.7
2016-Sep-09 14:33N 30°05' W 093°17'2 2.1
2016-Sep-09 13:33N 30°04' W 093°16'4 3.7
2016-Sep-09 12:33N 30°00' W 093°14'  

Dump ship's entire track history